Time;durP1;ratioP1;P1;durP2;ratioP2;P2;SDS_P1;SDS_P2;PMS_P1;PMS_P2;Temp;Humidity;BMP_temperature;BMP_pressure;BME280_temperature;BME280_humidity;BME280_pressure;Samples;Min_cycle;Max_cycle;Signal;HPM_P1;HPM_P2
2022/03/03 00:02:03;;;;;;;32.92;16.25;;;;;;;-144.65;100.00;64500.88;5078208;28;20715;-74
2022/03/03 00:04:28;;;;;;;34.15;16.13;;;;;;;-144.65;100.00;64500.88;5092677;28;20380;-75
2022/03/03 00:06:55;;;;;;;42.15;16.77;;;;;;;-144.65;100.00;64500.88;5088402;28;20024;-74
2022/03/03 00:09:20;;;;;;;39.17;17.17;;;;;;;-144.65;100.00;64500.88;5091106;28;20020;-74
2022/03/03 00:11:46;;;;;;;37.88;15.88;;;;;;;-144.65;100.00;64500.88;5089854;28;20370;-74
2022/03/03 00:14:11;;;;;;;37.60;16.27;;;;;;;-144.65;100.00;64500.88;5088473;28;20566;-74
2022/03/03 00:16:37;;;;;;;32.17;15.73;;;;;;;-144.65;100.00;64500.88;5090988;28;20040;-75
2022/03/03 00:19:02;;;;;;;35.25;15.43;;;;;;;-144.65;100.00;64500.88;5090185;28;20023;-75
2022/03/03 00:21:28;;;;;;;40.13;16.25;;;;;;;-144.65;100.00;64500.88;5091141;28;20464;-73
2022/03/03 00:23:53;;;;;;;32.35;17.23;;;;;;;-144.65;100.00;64500.88;5090960;28;20023;-74
2022/03/03 00:26:19;;;;;;;37.22;16.77;;;;;;;-144.65;100.00;64500.88;5091133;28;20020;-75
2022/03/03 00:28:44;;;;;;;39.92;16.63;;;;;;;-144.65;100.00;64500.88;5091244;28;20012;-74
2022/03/03 00:31:11;;;;;;;40.95;18.10;;;;;;;-144.65;100.00;64500.88;5091481;28;20024;-74
2022/03/03 00:33:37;;;;;;;37.20;17.42;;;;;;;-144.65;100.00;64500.88;5090759;28;20028;-74
2022/03/03 00:36:02;;;;;;;45.22;18.45;;;;;;;-144.65;100.00;64500.88;5090784;28;20076;-75
2022/03/03 00:38:28;;;;;;;41.15;17.27;;;;;;;-144.65;100.00;64500.88;5088751;28;20385;-74
2022/03/03 00:40:54;;;;;;;36.35;16.52;;;;;;;-144.65;100.00;64500.88;5082573;28;20024;-74
2022/03/03 00:43:19;;;;;;;38.20;17.80;;;;;;;-144.65;100.00;64500.88;5090777;28;20507;-75
2022/03/03 00:45:44;;;;;;;43.72;17.08;;;;;;;-144.65;100.00;64500.88;5088763;28;20394;-74
2022/03/03 00:48:10;;;;;;;37.97;17.83;;;;;;;-144.65;100.00;64500.88;5085906;28;20016;-74
2022/03/03 00:50:35;;;;;;;41.95;18.83;;;;;;;-144.65;100.00;64500.88;5091925;28;20040;-74
2022/03/03 00:53:01;;;;;;;45.80;18.80;;;;;;;-144.65;100.00;64500.88;5090881;28;20722;-73
2022/03/03 00:55:27;;;;;;;50.17;19.48;;;;;;;-144.65;100.00;64500.88;5090723;28;20488;-73
2022/03/03 00:57:52;;;;;;;38.63;17.35;;;;;;;-144.65;100.00;64500.88;5091717;28;20020;-75
2022/03/03 01:00:18;;;;;;;41.17;19.00;;;;;;;-144.65;100.00;64500.88;5091030;28;20156;-73
2022/03/03 01:02:51;;;;;;;44.45;18.33;;;;;;;-144.65;100.00;64500.88;5089827;28;20033;-74
2022/03/03 01:05:16;;;;;;;41.33;17.23;;;;;;;-144.65;100.00;64500.88;5079924;28;20032;-74
2022/03/03 01:07:43;;;;;;;39.08;16.98;;;;;;;-144.65;100.00;64500.88;5090486;28;20034;-74
2022/03/03 01:10:10;;;;;;;47.55;18.65;;;;;;;-144.65;100.00;64500.88;5090758;28;20039;-74
2022/03/03 01:12:35;;;;;;;35.90;16.92;;;;;;;-144.65;100.00;64500.88;5087869;28;20386;-74
2022/03/03 01:15:03;;;;;;;36.63;16.65;;;;;;;-144.65;100.00;64500.88;5083298;28;20028;-74
2022/03/03 01:17:29;;;;;;;37.20;15.35;;;;;;;-144.65;100.00;64500.88;5091728;28;20429;-75
2022/03/03 01:19:54;;;;;;;42.10;18.85;;;;;;;-144.65;100.00;64500.88;5091308;28;20031;-74
2022/03/03 01:22:19;;;;;;;40.53;19.65;;;;;;;-144.65;100.00;64500.88;5091637;28;20032;-74
2022/03/03 01:24:45;;;;;;;38.35;17.10;;;;;;;-144.65;100.00;64500.88;5091394;28;20401;-74
2022/03/03 01:27:11;;;;;;;47.78;18.70;;;;;;;-144.65;100.00;64500.88;5090771;28;20020;-73
2022/03/03 01:29:37;;;;;;;38.83;17.90;;;;;;;-144.65;100.00;64500.88;5091073;28;20039;-74
2022/03/03 01:32:02;;;;;;;42.40;18.38;;;;;;;-144.65;100.00;64500.88;5089874;28;20032;-74
2022/03/03 01:34:29;;;;;;;35.38;17.38;;;;;;;-144.65;100.00;64500.88;5091389;28;20024;-74
2022/03/03 01:36:54;;;;;;;49.20;18.15;;;;;;;-144.65;100.00;64500.88;5091280;28;20393;-75
2022/03/03 01:39:19;;;;;;;39.30;17.50;;;;;;;-144.65;100.00;64500.88;5091166;28;20794;-74
2022/03/03 01:41:45;;;;;;;36.42;16.55;;;;;;;-144.65;100.00;64500.88;5092109;28;20032;-75
2022/03/03 01:44:10;;;;;;;37.47;18.63;;;;;;;-144.65;100.00;64500.88;5091148;28;20043;-74
2022/03/03 01:46:36;;;;;;;40.47;18.02;;;;;;;-144.65;100.00;64500.88;5090740;28;20500;-74
2022/03/03 01:49:01;;;;;;;34.55;15.85;;;;;;;-144.65;100.00;64500.88;5090256;28;20028;-74
2022/03/03 01:51:27;;;;;;;34.97;16.75;;;;;;;-144.65;100.00;64500.88;5090621;28;20488;-74
2022/03/03 01:53:52;;;;;;;34.90;15.50;;;;;;;-144.65;100.00;64500.88;5091150;28;20481;-74
2022/03/03 01:56:19;;;;;;;34.13;15.13;;;;;;;-144.65;100.00;64500.88;5091165;28;20040;-75
2022/03/03 01:58:44;;;;;;;35.08;16.50;;;;;;;-144.65;100.00;64500.88;5091348;28;20412;-74
2022/03/03 02:01:10;;;;;;;30.95;15.85;;;;;;;-144.65;100.00;64500.88;5092072;28;20046;-74
2022/03/03 02:03:36;;;;;;;28.27;14.73;;;;;;;-144.65;100.00;64500.88;5091512;28;20035;-74
2022/03/03 02:06:01;;;;;;;42.95;16.27;;;;;;;-144.65;100.00;64500.88;5092300;28;20051;-74
2022/03/03 02:08:27;;;;;;;31.92;15.88;;;;;;;-144.65;100.00;64500.88;5092227;28;20032;-74
2022/03/03 02:10:54;;;;;;;34.50;14.50;;;;;;;-144.65;100.00;64500.88;5091385;28;20046;-74
2022/03/03 02:13:19;;;;;;;36.40;15.18;;;;;;;-144.65;100.00;64500.88;5090976;28;20030;-74
2022/03/03 02:15:50;;;;;;;34.85;15.27;;;;;;;-144.65;100.00;64500.88;5090162;28;20032;-74
2022/03/03 02:18:15;;;;;;;38.30;16.13;;;;;;;-144.65;100.00;64500.88;5091108;28;20386;-74
2022/03/03 02:20:41;;;;;;;36.15;15.48;;;;;;;-144.65;100.00;64500.88;5090643;28;20020;-74
2022/03/03 02:23:06;;;;;;;35.22;14.48;;;;;;;-144.65;100.00;64500.88;5090577;28;20532;-74
2022/03/03 02:25:32;;;;;;;30.27;14.70;;;;;;;-144.65;100.00;64500.88;5090527;28;20074;-74
2022/03/03 02:27:57;;;;;;;34.63;14.77;;;;;;;-144.65;100.00;64500.88;5090362;28;20528;-74
2022/03/03 02:30:23;;;;;;;30.42;14.80;;;;;;;-144.65;100.00;64500.88;5089293;28;20032;-74
2022/03/03 02:32:48;;;;;;;43.25;17.25;;;;;;;-144.65;100.00;64500.88;5091024;28;20016;-74
2022/03/03 02:35:14;;;;;;;34.17;15.98;;;;;;;-144.65;100.00;64500.88;5090490;28;20123;-74
2022/03/03 02:37:43;;;;;;;36.13;17.52;;;;;;;-144.65;100.00;64500.88;5090494;28;20107;-75
2022/03/03 02:40:11;;;;;;;35.63;16.25;;;;;;;-144.65;100.00;64500.88;5090443;28;20074;-74
2022/03/03 02:42:37;;;;;;;43.63;18.30;;;;;;;-144.65;100.00;64500.88;5093010;28;20028;-74
2022/03/03 02:45:04;;;;;;;61.88;19.65;;;;;;;-144.65;100.00;64500.88;5094487;28;20025;-74
2022/03/03 02:47:31;;;;;;;38.38;18.50;;;;;;;-144.65;100.00;64500.88;5094629;28;20035;-74
2022/03/03 02:49:57;;;;;;;39.15;17.85;;;;;;;-144.65;100.00;64500.88;5095194;28;20035;-74
2022/03/03 02:52:24;;;;;;;42.03;21.73;;;;;;;-144.65;100.00;64500.88;5084791;28;20025;-75
2022/03/03 02:54:50;;;;;;;42.70;18.48;;;;;;;-144.65;100.00;64500.88;5089529;28;20499;-74
2022/03/03 03:00:00;;;;;;;39.15;17.60;;;;;;;-144.65;100.00;64500.88;5073585;28;20056;-74
2022/03/03 03:02:26;;;;;;;39.38;17.48;;;;;;;-144.65;100.00;64500.88;5073718;28;20078;-74
2022/03/03 03:04:51;;;;;;;35.47;18.20;;;;;;;-144.65;100.00;64500.88;5074249;28;20036;-74
2022/03/03 03:07:16;;;;;;;38.08;17.52;;;;;;;-144.65;100.00;64500.88;5073591;28;20055;-74
2022/03/03 03:09:42;;;;;;;35.30;16.52;;;;;;;-144.65;100.00;64500.88;5077761;28;20044;-74
2022/03/03 03:12:08;;;;;;;40.83;16.92;;;;;;;-144.65;100.00;64500.88;5094004;28;20032;-74
2022/03/03 03:14:34;;;;;;;49.35;18.02;;;;;;;-144.65;100.00;64500.88;5095122;28;20035;-74
2022/03/03 03:16:59;;;;;;;42.90;19.40;;;;;;;-144.65;100.00;64500.88;5093616;28;20024;-74
2022/03/03 03:19:24;;;;;;;37.30;16.92;;;;;;;-144.65;100.00;64500.88;5093957;28;20489;-74
2022/03/03 03:21:50;;;;;;;35.53;17.55;;;;;;;-144.65;100.00;64500.88;5093530;28;20020;-74
2022/03/03 03:24:15;;;;;;;38.88;16.65;;;;;;;-144.65;100.00;64500.88;5093460;28;20032;-74
2022/03/03 03:26:41;;;;;;;34.33;15.95;;;;;;;-144.65;100.00;64500.88;5093538;28;20070;-74
2022/03/03 03:29:06;;;;;;;41.35;18.13;;;;;;;-144.65;100.00;64500.88;5091827;28;20404;-75
2022/03/03 03:31:32;;;;;;;40.15;18.17;;;;;;;-144.65;100.00;64500.88;5093368;28;20039;-74
2022/03/03 03:33:57;;;;;;;36.47;16.75;;;;;;;-144.65;100.00;64500.88;5093851;28;20331;-74
2022/03/03 03:36:23;;;;;;;38.25;17.60;;;;;;;-144.65;100.00;64500.88;5092008;28;20039;-75
2022/03/03 03:38:48;;;;;;;37.95;16.55;;;;;;;-144.65;100.00;64500.88;5092604;28;20617;-74
2022/03/03 03:41:14;;;;;;;35.42;15.93;;;;;;;-144.65;100.00;64500.88;5092553;28;20447;-74
2022/03/03 03:43:39;;;;;;;37.22;16.40;;;;;;;-144.65;100.00;64500.88;5092801;28;20024;-73
2022/03/03 03:46:05;;;;;;;43.05;18.55;;;;;;;-144.65;100.00;64500.88;5093062;28;20392;-74
2022/03/03 03:48:30;;;;;;;36.30;17.48;;;;;;;-144.65;100.00;64500.88;5092962;28;20028;-74
2022/03/03 03:50:56;;;;;;;43.03;17.13;;;;;;;-144.65;100.00;64500.88;5092988;28;20036;-74
2022/03/03 03:53:22;;;;;;;39.35;17.77;;;;;;;-144.65;100.00;64500.88;5093501;28;20035;-75
2022/03/03 03:55:47;;;;;;;35.33;16.20;;;;;;;-144.65;100.00;64500.88;5093242;28;20039;-74
2022/03/03 03:58:12;;;;;;;37.08;16.50;;;;;;;-144.65;100.00;64500.88;5092817;28;20037;-75
2022/03/03 04:00:38;;;;;;;35.90;16.35;;;;;;;-144.65;100.00;64500.88;5092992;28;20024;-74
2022/03/03 04:03:03;;;;;;;44.15;18.17;;;;;;;-144.65;100.00;64500.88;5093048;28;20036;-75
2022/03/03 04:05:29;;;;;;;40.67;18.77;;;;;;;-144.65;100.00;64500.88;5091655;28;20031;-75
2022/03/03 04:07:54;;;;;;;39.97;18.35;;;;;;;-144.65;100.00;64500.88;5091860;28;20028;-74
2022/03/03 04:10:20;;;;;;;35.40;16.90;;;;;;;-144.65;100.00;64500.88;5093311;28;20008;-74
2022/03/03 04:12:46;;;;;;;42.60;16.75;;;;;;;-144.65;100.00;64500.88;5092729;28;20032;-75
2022/03/03 04:15:11;;;;;;;38.50;17.75;;;;;;;-144.65;100.00;64500.88;5092507;28;20028;-74
2022/03/03 04:17:37;;;;;;;39.85;16.35;;;;;;;-144.65;100.00;64500.88;5092689;28;20379;-75
2022/03/03 04:20:04;;;;;;;41.53;17.92;;;;;;;-144.65;100.00;64500.88;5092383;28;20025;-75
2022/03/03 04:22:33;;;;;;;42.30;17.35;;;;;;;-144.65;100.00;64500.88;5092933;28;20058;-75
2022/03/03 04:25:00;;;;;;;38.35;17.55;;;;;;;-144.65;100.00;64500.88;5092690;28;20046;-75
2022/03/03 04:27:25;;;;;;;36.70;16.48;;;;;;;-144.65;100.00;64500.88;5092474;28;20024;-74
2022/03/03 04:29:51;;;;;;;34.88;17.05;;;;;;;-144.65;100.00;64500.88;5092205;28;20077;-75
2022/03/03 04:32:16;;;;;;;33.95;16.77;;;;;;;-144.65;100.00;64500.88;5092522;28;20028;-75
2022/03/03 04:34:42;;;;;;;33.60;16.60;;;;;;;-144.65;100.00;64500.88;5093000;28;20020;-74
2022/03/03 04:37:08;;;;;;;40.08;17.08;;;;;;;-144.65;100.00;64500.88;5074215;28;20078;-75
2022/03/03 04:39:33;;;;;;;45.15;16.38;;;;;;;-144.65;100.00;64500.88;5092400;28;20024;-74
2022/03/03 04:41:58;;;;;;;39.63;18.40;;;;;;;-144.65;100.00;64500.88;5092236;28;20020;-74
2022/03/03 04:44:24;;;;;;;43.08;18.65;;;;;;;-144.65;100.00;64500.88;5092111;28;20028;-75
2022/03/03 04:46:49;;;;;;;49.65;19.48;;;;;;;-144.65;100.00;64500.88;5092294;28;20020;-74
2022/03/03 04:49:15;;;;;;;46.65;20.10;;;;;;;-144.65;100.00;64500.88;5091930;28;20028;-74
2022/03/03 04:51:40;;;;;;;52.95;20.58;;;;;;;-144.65;100.00;64500.88;5092193;28;20381;-75
2022/03/03 04:54:08;;;;;;;43.00;18.17;;;;;;;-144.65;100.00;64500.88;5081902;28;20374;-74
2022/03/03 04:56:34;;;;;;;43.00;17.17;;;;;;;-144.65;100.00;64500.88;5071513;28;20079;-75
2022/03/03 04:59:00;;;;;;;53.15;19.45;;;;;;;-144.65;100.00;64500.88;5080643;28;20064;-75
2022/03/03 05:01:25;;;;;;;47.10;17.60;;;;;;;-144.65;100.00;64500.88;5091610;28;20063;-75
2022/03/03 05:03:50;;;;;;;42.45;18.73;;;;;;;-144.65;100.00;64500.88;5092811;28;20024;-75
2022/03/03 05:06:17;;;;;;;45.05;19.30;;;;;;;-144.65;100.00;64500.88;5091306;28;20542;-75
2022/03/03 05:08:43;;;;;;;38.50;19.02;;;;;;;-144.65;100.00;64500.88;5091514;28;20062;-74
2022/03/03 05:11:08;;;;;;;43.40;18.83;;;;;;;-144.65;100.00;64500.88;5082299;28;20056;-74
2022/03/03 05:13:34;;;;;;;45.33;18.92;;;;;;;-144.65;100.00;64500.88;5071571;28;20036;-75
2022/03/03 05:16:00;;;;;;;42.90;18.55;;;;;;;-144.65;100.00;64500.88;5070932;28;20489;-74
2022/03/03 05:18:25;;;;;;;55.60;19.80;;;;;;;-144.65;100.00;64500.88;5071099;28;20034;-75
2022/03/03 05:20:50;;;;;;;45.92;19.40;;;;;;;-144.65;100.00;64500.88;5071042;28;20043;-75
2022/03/03 05:23:16;;;;;;;49.90;19.42;;;;;;;-144.65;100.00;64500.88;5071084;28;20067;-75
2022/03/03 05:25:41;;;;;;;49.75;17.60;;;;;;;-144.65;100.00;64500.88;5070913;28;20478;-74
2022/03/03 05:28:07;;;;;;;41.58;16.48;;;;;;;-144.65;100.00;64500.88;5070637;28;20032;-75
2022/03/03 05:30:32;;;;;;;37.30;17.20;;;;;;;-144.65;100.00;64500.88;5070969;28;20044;-75
2022/03/03 05:32:58;;;;;;;43.80;18.15;;;;;;;-144.65;100.00;64500.88;5070750;28;20111;-75
2022/03/03 05:35:23;;;;;;;33.10;16.02;;;;;;;-144.65;100.00;64500.88;5071427;28;20029;-75
2022/03/03 05:37:49;;;;;;;46.40;20.70;;;;;;;-144.65;100.00;64500.88;5071225;28;20074;-74
2022/03/03 05:40:16;;;;;;;39.53;19.10;;;;;;;-144.65;100.00;64500.88;5070630;28;20028;-75
2022/03/03 05:42:43;;;;;;;51.03;20.92;;;;;;;-144.65;100.00;64500.88;5070744;28;20031;-74
2022/03/03 05:45:09;;;;;;;58.33;24.83;;;;;;;-144.65;100.00;64500.88;5077585;28;20062;-73
2022/03/03 05:47:35;;;;;;;76.43;30.50;;;;;;;-144.65;100.00;64500.88;5089136;28;20154;-74
2022/03/03 05:50:01;;;;;;;67.03;25.50;;;;;;;-144.65;100.00;64500.88;5089331;28;20528;-74
2022/03/03 05:52:27;;;;;;;75.53;27.30;;;;;;;-144.65;100.00;64500.88;5089468;28;20063;-74
2022/03/03 05:54:52;;;;;;;73.60;28.05;;;;;;;-144.65;100.00;64500.88;5086642;28;20024;-74
2022/03/03 05:57:21;;;;;;;55.65;24.88;;;;;;;-144.65;100.00;64500.88;5089355;28;20381;-74
2022/03/03 05:59:50;;;;;;;46.42;21.45;;;;;;;-144.65;100.00;64500.88;5089532;28;20726;-74
2022/03/03 06:02:18;;;;;;;63.17;25.25;;;;;;;-144.65;100.00;64500.88;5087614;28;20043;-74
2022/03/03 06:04:44;;;;;;;90.57;31.13;;;;;;;-144.65;100.00;64500.88;5090319;28;20024;-73
2022/03/03 06:07:10;;;;;;;92.40;32.97;;;;;;;-144.65;100.00;64500.88;5089241;28;20338;-73
2022/03/03 06:09:36;;;;;;;76.00;25.90;;;;;;;-144.65;100.00;64500.88;5089183;28;20042;-73
2022/03/03 06:12:19;;;;;;;90.10;26.50;;;;;;;-144.65;100.00;64500.88;5089189;28;20051;-73
2022/03/03 06:14:49;;;;;;;77.30;23.35;;;;;;;-144.65;100.00;64500.88;5087532;28;20434;-74
2022/03/03 06:17:18;;;;;;;50.17;19.95;;;;;;;-144.65;100.00;64500.88;5086940;28;20543;-74
2022/03/03 06:19:46;;;;;;;40.65;21.27;;;;;;;-144.65;100.00;64500.88;5088350;28;20536;-76
2022/03/03 06:22:12;;;;;;;50.65;20.67;;;;;;;-144.65;100.00;64500.88;5088881;28;20028;-74
2022/03/03 06:24:38;;;;;;;53.58;21.15;;;;;;;-144.65;100.00;64500.88;5089908;28;20147;-74
2022/03/03 06:27:04;;;;;;;53.67;22.50;;;;;;;-144.65;100.00;64500.88;5086883;28;20545;-74
2022/03/03 06:29:31;;;;;;;57.63;22.45;;;;;;;-144.65;100.00;64500.88;5089536;28;20404;-74
2022/03/03 06:31:57;;;;;;;55.70;24.55;;;;;;;-144.65;100.00;64500.88;5087389;28;20112;-75
2022/03/03 06:34:25;;;;;;;59.30;23.50;;;;;;;-144.65;100.00;64500.88;5089424;28;20033;-75
2022/03/03 06:36:51;;;;;;;63.42;27.83;;;;;;;-144.65;100.00;64500.88;5090121;28;20032;-74
2022/03/03 06:39:17;;;;;;;56.45;24.25;;;;;;;-144.65;100.00;64500.88;5089976;28;20437;-75
2022/03/03 06:41:42;;;;;;;52.25;22.95;;;;;;;-144.65;100.00;64500.88;5094300;28;20084;-74
2022/03/03 06:44:08;;;;;;;43.05;21.35;;;;;;;-144.65;100.00;64500.88;5096395;28;20008;-74
2022/03/03 06:46:35;;;;;;;43.70;21.73;;;;;;;-144.65;100.00;64500.88;5097772;28;20101;-75
2022/03/03 06:49:00;;;;;;;56.47;22.52;;;;;;;-144.65;100.00;64500.88;5104367;28;20512;-76
2022/03/03 06:51:33;;;;;;;49.28;23.75;;;;;;;-144.65;100.00;64500.88;5093387;28;20047;-75
2022/03/03 06:54:02;;;;;;;52.17;22.42;;;;;;;-144.65;100.00;64500.88;5108096;28;20028;-76
2022/03/03 06:56:30;;;;;;;58.28;21.30;;;;;;;-144.65;100.00;64500.88;5100182;28;20036;-75
2022/03/03 06:58:59;;;;;;;57.13;23.98;;;;;;;-144.65;100.00;64500.88;5110291;28;20051;-77
2022/03/03 07:01:28;;;;;;;56.97;22.77;;;;;;;-144.65;100.00;64500.88;5093888;28;20059;-76
2022/03/03 07:03:53;;;;;;;46.17;19.40;;;;;;;-144.65;100.00;64500.88;5104560;28;20031;-76
2022/03/03 07:06:19;;;;;;;46.97;22.60;;;;;;;-144.65;100.00;64500.88;5089780;28;20411;-75
2022/03/03 07:08:46;;;;;;;53.28;21.65;;;;;;;-144.65;100.00;64500.88;5089749;28;20029;-77
2022/03/03 07:11:13;;;;;;;48.80;19.75;;;;;;;-144.65;100.00;64500.88;5090208;28;20020;-77
2022/03/03 07:13:38;;;;;;;46.45;19.95;;;;;;;-144.65;100.00;64500.88;5091949;28;20522;-77
2022/03/03 07:16:45;;;;;;;54.97;21.73;;;;;;;-144.65;100.00;64500.88;5085256;28;20028;-76
2022/03/03 07:19:26;;;;;;;;;;;;;;;-144.65;100.00;64500.88;5079801;28;20046;-77
2022/03/03 07:22:10;;;;;;;42.22;19.20;;;;;;;-144.65;100.00;64500.88;5088397;28;19919;-77
2022/03/03 07:24:46;;;;;;;50.78;20.50;;;;;;;-144.65;100.00;64500.88;5089739;28;20534;-75
2022/03/03 07:27:18;;;;;;;41.33;18.15;;;;;;;-144.65;100.00;64500.88;5088558;28;20036;-74
2022/03/03 07:29:47;;;;;;;40.40;18.90;;;;;;;-144.65;100.00;64500.88;5088943;28;20384;-75
2022/03/03 07:32:17;;;;;;;43.08;19.85;;;;;;;-144.65;100.00;64500.88;5090738;28;20024;-75
2022/03/03 07:34:48;;;;;;;35.83;20.02;;;;;;;-144.65;100.00;64500.88;5092949;28;20020;-75
2022/03/03 07:37:18;;;;;;;36.53;19.42;;;;;;;-144.65;100.00;64500.88;5093392;28;20024;-75
2022/03/03 07:39:45;;;;;;;42.08;19.25;;;;;;;-144.65;100.00;64500.88;5093834;28;20111;-75
2022/03/03 07:42:19;;;;;;;36.95;19.27;;;;;;;-144.65;100.00;64500.88;5093684;28;20024;-75
2022/03/03 07:44:48;;;;;;;39.42;20.75;;;;;;;-144.65;100.00;64500.88;5093542;28;20028;-75
2022/03/03 07:47:15;;;;;;;42.45;20.70;;;;;;;-144.65;100.00;64500.88;5093641;28;20036;-75
2022/03/03 07:49:40;;;;;;;49.95;20.73;;;;;;;-144.65;100.00;64500.88;5095916;28;20461;-75
2022/03/03 07:52:07;;;;;;;39.03;22.20;;;;;;;-144.65;100.00;64500.88;5094217;28;20023;-75
2022/03/03 07:54:33;;;;;;;48.50;23.42;;;;;;;-144.65;100.00;64500.88;5094500;28;20028;-77
2022/03/03 07:57:01;;;;;;;49.97;23.63;;;;;;;-144.65;100.00;64500.88;5093319;28;20090;-75
2022/03/03 07:59:32;;;;;;;43.33;21.90;;;;;;;-144.65;100.00;64500.88;5094145;28;20048;-75
2022/03/03 08:02:01;;;;;;;45.40;23.05;;;;;;;-144.65;100.00;64500.88;5093346;28;20032;-75
2022/03/03 08:04:29;;;;;;;46.47;22.63;;;;;;;-144.65;100.00;64500.88;5093671;28;20746;-75
2022/03/03 08:07:03;;;;;;;47.35;23.95;;;;;;;-144.65;100.00;64500.88;5093497;28;20035;-76
2022/03/03 08:09:30;;;;;;;45.72;22.88;;;;;;;-144.65;100.00;64500.88;5092472;28;20055;-76
2022/03/03 08:11:58;;;;;;;41.83;23.33;;;;;;;-144.65;100.00;64500.88;5094860;28;20031;-76
2022/03/03 08:14:24;;;;;;;42.08;23.02;;;;;;;-144.65;100.00;64500.88;5098162;28;20035;-77
2022/03/03 08:16:50;;;;;;;42.40;23.05;;;;;;;-144.65;100.00;64500.88;5096324;28;20040;-75
2022/03/03 08:19:17;;;;;;;44.17;22.58;;;;;;;-144.65;100.00;64500.88;5093083;28;20028;-76
2022/03/03 08:21:44;;;;;;;40.28;22.60;;;;;;;-144.65;100.00;64500.88;5093047;28;20024;-75
2022/03/03 08:24:11;;;;;;;41.60;22.73;;;;;;;-144.65;100.00;64500.88;5093109;28;20468;-75
2022/03/03 08:26:38;;;;;;;36.45;22.50;;;;;;;-144.65;100.00;64500.88;5092753;28;20020;-81
2022/03/03 08:29:04;;;;;;;40.90;22.13;;;;;;;-144.65;100.00;64500.88;5092571;28;20437;-76
2022/03/03 08:31:37;;;;;;;38.00;21.55;;;;;;;-144.65;100.00;64500.88;5092302;28;20157;-76
2022/03/03 08:34:12;;;;;;;39.22;23.17;;;;;;;-144.65;100.00;64500.88;5092839;28;20033;-75
2022/03/03 08:36:54;;;;;;;34.03;21.67;;;;;;;-144.65;100.00;64500.88;5092682;28;20118;-75
2022/03/03 08:39:26;;;;;;;38.03;21.85;;;;;;;-144.65;100.00;64500.88;5091661;28;20036;-75
2022/03/03 08:41:58;;;;;;;41.92;22.65;;;;;;;-144.65;100.00;64500.88;5092771;28;20019;-76
2022/03/03 08:44:32;;;;;;;37.38;21.75;;;;;;;-144.65;100.00;64500.88;5094059;28;20036;-75
2022/03/03 08:46:58;;;;;;;39.42;20.55;;;;;;;-144.65;100.00;64500.88;5092617;28;20020;-75
2022/03/03 08:49:30;;;;;;;39.17;22.92;;;;;;;-144.65;100.00;64500.88;5092495;28;20028;-75
2022/03/03 08:51:56;;;;;;;33.58;21.05;;;;;;;-144.65;100.00;64500.88;5092484;28;20028;-75
2022/03/03 08:54:21;;;;;;;36.60;21.67;;;;;;;-144.65;100.00;64500.88;5092400;28;20028;-75
2022/03/03 08:56:47;;;;;;;36.97;20.73;;;;;;;-144.65;100.00;64500.88;5092293;28;20502;-75
2022/03/03 08:59:13;;;;;;;36.65;20.98;;;;;;;-144.65;100.00;64500.88;5092196;28;20399;-76
2022/03/03 09:01:38;;;;;;;35.50;20.38;;;;;;;-144.65;100.00;64500.88;5092464;28;20024;-75
2022/03/03 09:04:04;;;;;;;35.25;21.02;;;;;;;-144.65;100.00;64500.88;5092372;28;20040;-76
2022/03/03 09:06:30;;;;;;;33.17;20.02;;;;;;;-144.65;100.00;64500.88;5091944;28;20055;-76
2022/03/03 09:08:56;;;;;;;35.42;20.23;;;;;;;-144.65;100.00;64500.88;5091854;28;20046;-76
2022/03/03 09:11:22;;;;;;;38.42;22.70;;;;;;;-144.65;100.00;64500.88;5091672;28;20015;-76
2022/03/03 09:13:48;;;;;;;35.35;21.45;;;;;;;-144.65;100.00;64500.88;5092128;28;20468;-75
2022/03/03 09:16:16;;;;;;;38.53;21.27;;;;;;;-144.65;100.00;64500.88;5081064;28;20032;-76
2022/03/03 09:18:41;;;;;;;32.20;20.23;;;;;;;-144.65;100.00;64500.88;5070297;28;20033;-75
2022/03/03 09:21:07;;;;;;;31.45;19.40;;;;;;;-144.65;100.00;64500.88;5071768;28;20028;-75
2022/03/03 09:23:33;;;;;;;34.35;19.10;;;;;;;-144.65;100.00;64500.88;5071547;28;20028;-76
2022/03/03 09:25:58;;;;;;;27.58;17.77;;;;;;;-144.65;100.00;64500.88;5070011;28;20042;-76
2022/03/03 09:28:24;;;;;;;24.42;16.77;;;;;;;-144.65;100.00;64500.88;5071475;28;20033;-75
2022/03/03 09:30:49;;;;;;;32.22;17.33;;;;;;;-144.65;100.00;64500.88;5071251;28;20096;-76
2022/03/03 09:33:15;;;;;;;26.77;16.70;;;;;;;-144.65;100.00;64500.88;5071454;28;20059;-75
2022/03/03 09:35:40;;;;;;;27.50;16.63;;;;;;;-144.65;100.00;64500.88;5069946;28;20048;-76
2022/03/03 09:38:05;;;;;;;26.42;16.23;;;;;;;-144.65;100.00;64500.88;5071452;28;20028;-76
2022/03/03 09:40:31;;;;;;;27.92;16.27;;;;;;;-144.65;100.00;64500.88;5073248;28;20041;-78
2022/03/03 09:43:04;;;;;;;25.73;15.95;;;;;;;-144.65;100.00;64500.88;5071434;28;20020;-76
2022/03/03 09:45:30;;;;;;;31.30;16.80;;;;;;;-144.65;100.00;64500.88;5071238;28;20035;-72
2022/03/03 09:47:57;;;;;;;24.27;14.57;;;;;;;-144.65;100.00;64500.88;5071043;28;20089;-75
2022/03/03 09:50:24;;;;;;;32.08;16.55;;;;;;;-144.65;100.00;64500.88;5071240;28;20024;-76
2022/03/03 09:52:50;;;;;;;31.25;14.50;;;;;;;-144.65;100.00;64500.88;5070155;28;20020;-75
2022/03/03 09:55:16;;;;;;;28.45;15.48;;;;;;;-144.65;100.00;64500.88;5071008;28;20423;-76
2022/03/03 09:57:41;;;;;;;26.80;16.95;;;;;;;-144.65;100.00;64500.88;5070976;28;20115;-76
2022/03/03 10:00:10;;;;;;;39.80;16.98;;;;;;;-144.65;100.00;64500.88;5070667;28;20501;-76
2022/03/03 10:02:55;;;;;;;35.28;17.80;;;;;;;-144.65;100.00;64500.88;5071319;28;20050;-76
2022/03/03 10:05:47;;;;;;;36.03;18.65;;;;;;;-144.65;100.00;64500.88;5070904;28;20111;-76
2022/03/03 10:08:18;;;;;;;30.35;19.10;;;;;;;-144.65;100.00;64500.88;5070801;28;20031;-76
2022/03/03 10:10:48;;;;;;;30.60;19.90;;;;;;;-144.65;100.00;64500.88;5070861;28;20024;-76
2022/03/03 10:13:16;;;;;;;27.55;18.85;;;;;;;-144.65;100.00;64500.88;5071107;28;20059;-76
2022/03/03 10:15:43;;;;;;;26.92;17.40;;;;;;;-144.65;100.00;64500.88;5070297;28;20511;-75
2022/03/03 10:18:14;;;;;;;30.90;18.33;;;;;;;-144.65;100.00;64500.88;5070727;28;20025;-76
2022/03/03 10:20:53;;;;;;;30.85;16.88;;;;;;;-144.65;100.00;64500.88;5070907;28;20028;-76
2022/03/03 10:23:24;;;;;;;31.63;17.77;;;;;;;-144.65;100.00;64500.88;5071892;28;20025;-76
2022/03/03 10:25:52;;;;;;;39.20;18.40;;;;;;;-144.65;100.00;64500.88;5076546;28;20031;-76
2022/03/03 10:28:20;;;;;;;30.50;17.88;;;;;;;-144.65;100.00;64500.88;5075899;28;20028;-73
2022/03/03 10:30:53;;;;;;;25.35;15.80;;;;;;;-144.65;100.00;64500.88;5072336;28;20051;-72
2022/03/03 10:33:21;;;;;;;21.92;15.40;;;;;;;-144.65;100.00;64500.88;5071237;28;20029;-74
2022/03/03 10:36:01;;;;;;;23.58;14.73;;;;;;;-144.65;100.00;64500.88;5074135;28;20024;-75
2022/03/03 10:38:28;;;;;;;24.08;13.32;;;;;;;-144.65;100.00;64500.88;5070669;28;20025;-75
2022/03/03 10:40:53;;;;;;;24.65;13.30;;;;;;;-144.65;100.00;64500.88;5071313;28;20074;-73
2022/03/03 10:43:19;;;;;;;22.60;13.18;;;;;;;-144.65;100.00;64500.88;5072988;28;20029;-73
2022/03/03 10:45:56;;;;;;;21.92;13.27;;;;;;;-144.65;100.00;64500.88;5073252;28;20025;-74
2022/03/03 10:48:24;;;;;;;21.60;12.80;;;;;;;-144.65;100.00;64500.88;5072007;28;20031;-74
2022/03/03 10:50:51;;;;;;;21.02;13.55;;;;;;;-144.65;100.00;64500.88;5071905;28;20058;-75
2022/03/03 10:53:19;;;;;;;21.83;14.32;;;;;;;-144.65;100.00;64500.88;5070483;28;20099;-74
2022/03/03 10:56:12;;;;;;;22.45;13.80;;;;;;;-144.65;100.00;64500.88;5070028;28;20771;-76
2022/03/03 10:58:47;;;;;;;20.15;13.60;;;;;;;-144.65;100.00;64500.88;5068982;28;20455;-73